Time;durP1;ratioP1;P1;durP2;ratioP2;P2;SDS_P1;SDS_P2;PMS_P1;PMS_P2;Temp;Humidity;BMP_temperature;BMP_pressure;BME280_temperature;BME280_humidity;BME280_pressure;Samples;Min_cycle;Max_cycle;Signal;HPM_P1;HPM_P2
2023/01/27 00:00:20;;;;;;;;;;;;;;;-2.21;63.47;92522.34;2051442;70;20141;-76
2023/01/27 00:02:46;;;;;;;;;;;;;;;-2.07;63.48;92532.81;2052646;70;20157;-77
2023/01/27 00:05:12;;;;;;;;;;;;;;;-2.14;63.60;92532.72;2054574;70;20043;-76
2023/01/27 00:07:38;;;;;;;;;;;;;;;-1.96;62.86;92542.88;2054667;70;20082;-77
2023/01/27 00:10:04;;;;;;;;;;;;;;;-1.95;63.19;92544.38;2054925;70;20138;-77
2023/01/27 00:15:14;;;;;;;;;;;;;;;-1.92;62.68;92548.09;2051796;70;20054;-77
2023/01/27 00:17:40;;;;;;;;;;;;;;;-1.78;62.37;92538.50;2051484;70;20050;-77
2023/01/27 00:20:06;;;;;;;;;;;;;;;-1.77;62.51;92534.44;2051485;70;20482;-77
2023/01/27 00:25:15;;;;;;;;;;;;;;;-2.01;62.99;92537.50;2054653;70;20046;-76
2023/01/27 00:27:41;;;;;;;;;;;;;;;-1.78;62.83;92532.97;2054641;69;20046;-78
2023/01/27 00:30:07;;;;;;;;;;;;;;;-1.72;62.54;92525.31;2054757;70;20437;-78
2023/01/27 00:35:16;;;;;;;;;;;;;;;-1.72;63.49;92535.59;2054731;70;20054;-77
2023/01/27 00:37:43;;;;;;;;;;;;;;;-1.60;63.14;92525.81;2054796;70;20132;-78
2023/01/27 00:40:12;;;;;;;;;;;;;;;-1.59;63.27;92522.50;2054672;70;20046;-77
2023/01/27 00:42:38;;;;;;;;;;;;;;;-1.84;63.29;92522.03;2053459;70;20486;-74
2023/01/27 00:47:48;;;;;;;;;;;;;;;-1.91;62.55;92528.22;2054499;70;20050;-76
2023/01/27 00:50:15;;;;;;;;;;;;;;;-1.72;62.71;92524.56;2053150;70;20094;-77
2023/01/27 00:52:41;;;;;;;;;;;;;;;-1.75;62.61;92528.38;2053989;70;20050;-77
2023/01/27 00:55:07;;;;;;;;;;;;;;;-1.73;62.98;92531.38;2054799;70;20112;-77
2023/01/27 00:57:32;;;;;;;;;;;;;;;-1.78;63.09;92537.75;2045743;70;20138;-77
2023/01/27 00:59:58;;;;;;;;;;;;;;;-1.65;62.78;92538.47;2051787;70;20474;-76
2023/01/27 01:02:24;;;;;;;;;;;;;;;-1.60;62.69;92532.06;2056528;69;20049;-75
2023/01/27 01:04:49;;;;;;;;;;;;;;;-1.64;62.50;92539.19;2050312;70;20055;-76
2023/01/27 01:07:15;;;;;;;;;;;;;;;-1.82;63.24;92538.81;2050632;70;20058;-77
2023/01/27 01:09:40;;;;;;;;;;;;;;;-1.65;63.15;92548.72;2047820;70;20085;-75
2023/01/27 01:12:05;;;;;;;;;;;;;;;-1.67;63.12;92545.78;2049149;70;20137;-78
2023/01/27 01:14:32;;;;;;;;;;;;;;;-1.59;63.22;92543.84;2053594;70;20439;-76
2023/01/27 01:16:57;;;;;;;;;;;;;;;-1.60;62.78;92542.38;2051326;70;20052;-76
2023/01/27 01:19:28;;;;;;;;;;;;;;;-1.57;63.30;92539.25;2048114;70;20086;-76
2023/01/27 01:21:55;;;;;;;;;;;;;;;-1.50;62.81;92537.88;2048008;70;20055;-76
2023/01/27 01:24:20;;;;;;;;;;;;;;;-1.59;63.38;92538.34;2051021;70;20049;-76
2023/01/27 01:26:46;;;;;;;;;;;;;;;-1.96;63.44;92531.84;2047927;70;20169;-77
2023/01/27 01:29:12;;;;;;;;;;;;;;;-1.80;63.74;92538.28;2050980;70;20081;-77
2023/01/27 01:31:37;;;;;;;;;;;;;;;-2.13;63.75;92539.72;2051519;70;20081;-76
2023/01/27 01:34:03;;;;;;;;;;;;;;;-2.45;64.73;92540.59;2051622;70;20073;-77
2023/01/27 01:36:28;;;;;;;;;;;;;;;-2.24;64.53;92539.97;2051357;70;20057;-76
2023/01/27 01:38:57;;;;;;;;;;;;;;;-2.19;63.80;92539.09;2051289;70;20060;-77
2023/01/27 01:41:22;;;;;;;;;;;;;;;-2.13;63.97;92539.72;2052965;70;20132;-77
2023/01/27 01:43:49;;;;;;;;;;;;;;;-1.96;63.44;92536.63;2054795;70;20053;-77
2023/01/27 01:46:16;;;;;;;;;;;;;;;-1.83;62.98;92531.81;2054584;70;20050;-75
2023/01/27 01:48:46;;;;;;;;;;;;;;;-1.87;63.07;92525.88;2048534;70;20046;-76
2023/01/27 01:51:15;;;;;;;;;;;;;;;-1.69;62.86;92529.03;2046221;70;20043;-77
2023/01/27 01:53:42;;;;;;;;;;;;;;;-1.69;63.51;92526.25;2047979;70;20058;-76
2023/01/27 01:56:13;;;;;;;;;;;;;;;-1.64;62.93;92528.91;2047734;70;20412;-77
2023/01/27 01:58:40;;;;;;;;;;;;;;;-1.61;63.12;92527.81;2044400;70;20418;-76
2023/01/27 02:01:05;;;;;;;;;;;;;;;-1.59;63.07;92530.03;2048840;70;20175;-76
2023/01/27 02:03:33;;;;;;;;;;;;;;;-1.57;62.74;92535.75;2051064;70;20058;-76
2023/01/27 02:06:04;;;;;;;;;;;;;;;-1.56;62.52;92524.19;2051134;70;20050;-77
2023/01/27 02:08:34;;;;;;;;;;;;;;;-1.56;62.50;92532.47;2047731;70;20114;-77
2023/01/27 02:11:00;;;;;;;;;;;;;;;-1.54;61.99;92531.94;2048834;70;20120;-77
2023/01/27 02:13:26;;;;;;;;;;;;;;;-1.56;62.13;92540.78;2054450;70;20054;-77
2023/01/27 02:15:53;;;;;;;;;;;;;;;-1.56;61.80;92538.00;2050954;70;20046;-77
2023/01/27 02:18:19;;;;;;;;;;;;;;;-1.53;62.50;92536.19;2050868;70;20042;-76
2023/01/27 02:20:46;;;;;;;;;;;;;;;-1.52;62.70;92537.66;2051851;70;20058;-76
2023/01/27 02:23:52;;;;;;;;;;;;;;;-1.50;62.67;92537.88;2047899;70;20146;-76
2023/01/27 02:26:23;;;;;;;;;;;;;;;-1.58;62.73;92539.81;2047650;70;20070;-76
2023/01/27 02:29:01;;;;;;;;;;;;;;;-1.48;62.69;92545.59;2046992;70;20058;-76
2023/01/27 02:31:26;;;;;;;;;;;;;;;-1.46;62.39;92549.34;2051356;70;20061;-76
2023/01/27 02:33:54;;;;;;;;;;;;;;;-1.40;62.65;92541.66;2054282;70;20046;-76
2023/01/27 02:36:19;;;;;;;;;;;;;;;-1.48;62.94;92540.09;2051184;70;20475;-76
2023/01/27 02:38:48;;;;;;;;;;;;;;;-2.10;65.55;92530.41;2051703;70;20061;-76
2023/01/27 02:41:26;;;;;;;;;;;;;;;-1.81;65.27;92537.53;2049032;70;20168;-77
2023/01/27 02:43:51;;;;;;;;;;;;;;;-1.56;63.95;92538.00;2048564;70;20055;-75
2023/01/27 02:46:18;;;;;;;;;;;;;;;-1.52;63.63;92537.66;2051059;70;20046;-75
2023/01/27 02:48:44;;;;;;;;;;;;;;;-1.51;63.46;92538.38;2048164;70;20089;-76
2023/01/27 02:51:10;;;;;;;;;;;;;;;-1.49;63.81;92544.13;2052263;70;20564;-75
2023/01/27 02:53:40;;;;;;;;;;;;;;;-1.52;63.54;92543.19;2051462;70;20148;-75
2023/01/27 02:56:05;;;;;;;;;;;;;;;-1.48;63.12;92538.06;2051453;70;20088;-76
2023/01/27 02:58:31;;;;;;;;;;;;;;;-1.46;63.57;92534.78;2050702;70;20070;-75
2023/01/27 03:01:05;;;;;;;;;;;;;;;-1.47;63.07;92527.75;2050306;70;20047;-76
2023/01/27 03:03:32;;;;;;;;;;;;;;;-1.60;63.88;92532.06;2048097;70;20321;-76
2023/01/27 03:05:58;;;;;;;;;;;;;;;-1.57;64.00;92530.97;2051227;70;20470;-76
2023/01/27 03:08:23;;;;;;;;;;;;;;;-1.51;63.85;92533.63;2048258;70;20422;-76
2023/01/27 03:10:50;;;;;;;;;;;;;;;-1.44;63.63;92532.94;2050685;70;20109;-75
2023/01/27 03:13:16;;;;;;;;;;;;;;;-1.55;63.75;92533.22;2051308;70;20058;-76
2023/01/27 03:18:27;;;;;;;;;;;;;;;-1.44;63.25;92538.47;2047358;70;20474;-77
2023/01/27 03:20:59;;;;;;;;;;;;;;;-1.47;63.30;92545.06;2047413;70;20054;-76
2023/01/27 03:23:24;;;;;;;;;;;;;;;-1.46;62.84;92545.84;2051528;70;20047;-76
2023/01/27 03:25:50;;;;;;;;;;;;;;;-1.48;62.52;92546.34;2050396;70;20518;-76
2023/01/27 03:28:16;;;;;;;;;;;;;;;-1.70;62.55;92549.59;2048188;70;20127;-76
2023/01/27 03:30:59;;;;;;;;;;;;;;;-1.54;62.35;92551.25;2048015;70;20047;-77
2023/01/27 03:33:32;;;;;;;;;;;;;;;-1.44;62.03;92543.25;2048224;70;20179;-76
2023/01/27 03:47:02;;;;;;;;;;;;;;;-1.50;63.48;92526.84;2051576;70;20513;-76
2023/01/27 03:49:27;;;;;;;;;;;;;;;-1.43;63.53;92528.91;2051356;70;20081;-76
2023/01/27 03:51:54;;;;;;;;;;;;;;;-1.47;64.05;92528.50;2052714;70;20104;-76
2023/01/27 03:54:19;;;;;;;;;;;;;;;-1.50;63.82;92532.34;2054356;70;20050;-76
2023/01/27 03:56:46;;;;;;;;;;;;;;;-1.60;64.01;92536.84;2054777;70;20069;-75
2023/01/27 03:59:12;;;;;;;;;;;;;;;-1.61;64.29;92529.81;2051247;70;20043;-76
2023/01/27 04:01:38;;;;;;;;;;;;;;;-1.53;63.70;92536.19;2052771;70;20053;-76
2023/01/27 04:07:01;;;;;;;;;;;;;;;-1.48;63.89;92549.09;2054970;70;20512;-76
2023/01/27 04:09:32;;;;;;;;;;;;;;;-1.42;63.73;92544.22;2054895;70;20053;-75
2023/01/27 04:11:59;;;;;;;;;;;;;;;-1.42;64.06;92541.47;2052983;70;20131;-76
2023/01/27 04:14:32;;;;;;;;;;;;;;;-1.41;64.14;92550.47;2054058;70;20077;-76
2023/01/27 04:17:02;;;;;;;;;;;;;;;-1.44;63.68;92546.75;2053894;70;20741;-76
2023/01/27 04:19:27;;;;;;;;;;;;;;;-1.45;63.70;92550.81;2054904;70;20081;-76
2023/01/27 04:21:53;;;;;;;;;;;;;;;-1.50;64.19;92539.91;2053227;70;20062;-76
2023/01/27 04:24:22;;;;;;;;;;;;;;;-1.45;63.97;92537.00;2053855;70;20065;-76
2023/01/27 04:26:48;;;;;;;;;;;;;;;-1.42;63.80;92532.41;2054701;70;20053;-77
2023/01/27 04:29:15;;;;;;;;;;;;;;;-1.41;63.64;92536.69;2055001;70;20124;-76
2023/01/27 04:31:41;;;;;;;;;;;;;;;-1.42;63.85;92535.94;2053185;70;20046;-77
2023/01/27 04:34:06;;;;;;;;;;;;;;;-1.44;64.12;92537.75;2051325;70;20054;-75
2023/01/27 04:36:32;;;;;;;;;;;;;;;-1.58;63.87;92532.25;2054119;70;20395;-76
2023/01/27 04:38:57;;;;;;;;;;;;;;;-1.46;63.96;92535.53;2054886;70;20050;-76
2023/01/27 04:41:23;;;;;;;;;;;;;;;-1.43;63.80;92526.16;2053810;70;20122;-76
2023/01/27 04:43:48;;;;;;;;;;;;;;;-1.49;63.82;92528.31;2054180;70;20116;-76
2023/01/27 04:46:14;;;;;;;;;;;;;;;-1.53;63.88;92533.41;2054512;70;20066;-76
2023/01/27 04:48:39;;;;;;;;;;;;;;;-1.47;64.25;92547.09;2053272;70;20122;-76
2023/01/27 04:51:05;;;;;;;;;;;;;;;-1.46;64.10;92546.56;2051146;70;20051;-75
2023/01/27 04:53:30;;;;;;;;;;;;;;;-1.58;64.06;92554.34;2051445;70;20053;-76
2023/01/27 04:56:00;;;;;;;;;;;;;;;-1.46;64.00;92545.84;2051430;70;20494;-76
2023/01/27 04:58:26;;;;;;;;;;;;;;;-1.62;64.16;92550.44;2051514;70;20050;-76
2023/01/27 05:00:51;;;;;;;;;;;;;;;-1.55;63.64;92538.75;2054686;70;20596;-76
2023/01/27 05:03:17;;;;;;;;;;;;;;;-1.53;63.79;92533.41;2048020;70;20457;-76
2023/01/27 05:05:42;;;;;;;;;;;;;;;-1.54;63.55;92529.91;2050980;70;20043;-77
2023/01/27 05:08:08;;;;;;;;;;;;;;;-1.50;63.79;92523.34;2051326;70;20046;-77
2023/01/27 05:10:34;;;;;;;;;;;;;;;-1.49;63.25;92528.31;2050905;70;20066;-77
2023/01/27 05:13:01;;;;;;;;;;;;;;;-1.59;63.61;92525.25;2051744;70;20429;-77
2023/01/27 05:15:28;;;;;;;;;;;;;;;-1.54;64.02;92529.91;2051472;70;20437;-77
2023/01/27 05:17:54;;;;;;;;;;;;;;;-1.76;63.92;92530.41;2054837;70;20251;-77
2023/01/27 05:20:19;;;;;;;;;;;;;;;-1.73;63.85;92523.84;2053151;70;20059;-77
2023/01/27 05:22:45;;;;;;;;;;;;;;;-1.64;63.84;92520.63;2052995;70;20145;-76
2023/01/27 05:25:10;;;;;;;;;;;;;;;-1.72;63.12;92514.25;2054951;70;20487;-76
2023/01/27 05:27:36;;;;;;;;;;;;;;;-2.01;61.82;92523.69;2054623;70;20046;-76
2023/01/27 05:30:01;;;;;;;;;;;;;;;-2.05;62.97;92524.75;2050982;70;20046;-76
2023/01/27 05:32:27;;;;;;;;;;;;;;;-2.00;61.25;92523.16;2054215;70;20042;-76
2023/01/27 05:34:52;;;;;;;;;;;;;;;-2.14;61.09;92518.94;2054693;70;20058;-76
2023/01/27 05:37:18;;;;;;;;;;;;;;;-2.01;60.03;92523.69;2054688;70;20069;-75
2023/01/27 05:39:43;;;;;;;;;;;;;;;-2.05;60.03;92526.78;2054281;70;20075;-76
2023/01/27 05:42:08;;;;;;;;;;;;;;;-1.88;59.62;92526.41;2053355;70;20049;-76
2023/01/27 05:44:34;;;;;;;;;;;;;;;-2.10;60.15;92525.63;2051283;70;20479;-77
2023/01/27 05:46:59;;;;;;;;;;;;;;;-2.39;60.24;92529.47;2051423;70;20133;-76
2023/01/27 05:49:25;;;;;;;;;;;;;;;-2.34;59.24;92520.34;2053082;70;20038;-77
2023/01/27 05:51:50;;;;;;;;;;;;;;;-2.48;59.71;92527.13;2054156;70;20050;-76
2023/01/27 05:54:16;;;;;;;;;;;;;;;-2.44;59.40;92519.28;2054728;70;20077;-76
2023/01/27 05:56:41;;;;;;;;;;;;;;;-2.44;59.59;92519.28;2054620;70;20043;-76
2023/01/27 05:59:07;;;;;;;;;;;;;;;-2.72;59.74;92520.56;2054774;70;20525;-76
2023/01/27 06:01:33;;;;;;;;;;;;;;;-2.72;59.07;92526.06;2054062;70;20183;-76
2023/01/27 06:03:59;;;;;;;;;;;;;;;-2.66;58.51;92525.97;2051160;70;20046;-76
2023/01/27 06:06:25;;;;;;;;;;;;;;;-2.49;58.09;92528.41;2051323;70;20157;-77
2023/01/27 06:08:51;;;;;;;;;;;;;;;-2.35;58.64;92538.16;2051338;70;20484;-77
2023/01/27 06:11:21;;;;;;;;;;;;;;;-2.96;58.87;92521.50;2053776;70;20092;-77
2023/01/27 06:13:47;;;;;;;;;;;;;;;-2.91;58.41;92534.44;2051732;70;20138;-77
2023/01/27 06:16:14;;;;;;;;;;;;;;;-2.73;58.35;92538.38;2051980;70;20481;-77
2023/01/27 06:18:39;;;;;;;;;;;;;;;-2.51;57.51;92542.72;2052901;70;20525;-75
2023/01/27 06:21:06;;;;;;;;;;;;;;;-2.67;57.68;92532.75;2055159;70;20093;-75
2023/01/27 06:23:32;;;;;;;;;;;;;;;-2.58;57.73;92535.81;2052171;69;20078;-76
2023/01/27 06:26:05;;;;;;;;;;;;;;;-2.56;57.38;92538.81;2051685;70;20089;-76
2023/01/27 06:28:31;;;;;;;;;;;;;;;-2.62;57.27;92538.16;2052317;70;20489;-77
2023/01/27 06:31:03;;;;;;;;;;;;;;;-2.45;56.99;92542.63;2055034;70;20054;-76
2023/01/27 06:33:28;;;;;;;;;;;;;;;-2.56;57.39;92557.38;2054237;70;20054;-77
2023/01/27 06:35:59;;;;;;;;;;;;;;;-2.56;56.88;92560.13;2054964;70;20078;-77
2023/01/27 06:38:24;;;;;;;;;;;;;;;-2.47;56.80;92564.47;2055086;70;20081;-76
2023/01/27 06:40:50;;;;;;;;;;;;;;;-2.36;57.08;92564.25;2053517;70;20486;-77
2023/01/27 06:43:15;;;;;;;;;;;;;;;-2.43;57.17;92573.16;2051358;70;20506;-76
2023/01/27 06:45:41;;;;;;;;;;;;;;;-2.20;56.61;92567.94;2051736;70;20097;-76
2023/01/27 06:48:10;;;;;;;;;;;;;;;-2.05;56.00;92568.91;2051536;70;20117;-76
2023/01/27 06:50:35;;;;;;;;;;;;;;;-1.94;55.88;92575.44;2051656;70;20061;-77
2023/01/27 06:53:02;;;;;;;;;;;;;;;-1.98;56.10;92569.50;2051085;70;20050;-76
2023/01/27 06:55:28;;;;;;;;;;;;;;;-1.93;56.44;92585.94;2051740;70;20053;-76
2023/01/27 06:57:53;;;;;;;;;;;;;;;-1.83;56.76;92583.50;2051562;70;20417;-76
2023/01/27 07:00:20;;;;;;;;;;;;;;;-1.86;56.66;92588.06;2052731;70;20109;-76
2023/01/27 07:02:45;;;;;;;;;;;;;;;-2.09;57.01;92587.03;2053300;70;20466;-76
2023/01/27 07:05:11;;;;;;;;;;;;;;;-1.91;56.17;92582.66;2053022;70;20058;-77
2023/01/27 07:07:37;;;;;;;;;;;;;;;-1.87;56.89;92594.88;2054779;70;20047;-77
2023/01/27 07:10:03;;;;;;;;;;;;;;;-1.83;57.12;92589.03;2054988;70;20054;-76
2023/01/27 07:12:28;;;;;;;;;;;;;;;-2.17;56.03;92591.72;2054285;70;20046;-76
2023/01/27 07:14:54;;;;;;;;;;;;;;;-1.93;56.34;92585.22;2054945;70;20077;-76
2023/01/27 07:17:19;;;;;;;;;;;;;;;-1.83;56.35;92591.78;2054866;70;20050;-76
2023/01/27 07:19:44;;;;;;;;;;;;;;;-1.77;56.82;92591.66;2054387;70;20054;-75
2023/01/27 07:22:10;;;;;;;;;;;;;;;-1.77;56.71;92589.66;2053855;70;20046;-76
2023/01/27 07:24:35;;;;;;;;;;;;;;;-1.70;56.63;92596.53;2054757;70;20646;-76
2023/01/27 07:27:01;;;;;;;;;;;;;;;-1.57;57.06;92599.25;2054679;70;20053;-77
2023/01/27 07:29:26;;;;;;;;;;;;;;;-1.72;57.07;92590.81;2054904;70;20085;-77
2023/01/27 07:31:52;;;;;;;;;;;;;;;-2.00;57.08;92600.41;2054839;70;20049;-77
2023/01/27 07:34:17;;;;;;;;;;;;;;;-2.15;56.48;92594.69;2053824;70;20446;-77
2023/01/27 07:36:42;;;;;;;;;;;;;;;-2.31;56.77;92602.75;2055075;70;20085;-77
2023/01/27 07:39:08;;;;;;;;;;;;;;;-2.36;55.93;92595.31;2051341;70;20058;-76
2023/01/27 07:41:33;;;;;;;;;;;;;;;-2.06;55.75;92600.53;2051157;70;20502;-76
2023/01/27 07:44:00;;;;;;;;;;;;;;;-1.93;55.47;92599.75;2048217;70;20227;-76
2023/01/27 07:46:26;;;;;;;;;;;;;;;-2.09;55.80;92606.34;2050962;70;20536;-78
2023/01/27 07:48:51;;;;;;;;;;;;;;;-2.01;55.04;92612.72;2051157;70;20043;-77
2023/01/27 07:51:17;;;;;;;;;;;;;;;-2.21;55.27;92605.06;2050970;70;20047;-77
2023/01/27 07:53:42;;;;;;;;;;;;;;;-2.26;55.94;92606.66;2051025;70;20402;-76
2023/01/27 07:56:10;;;;;;;;;;;;;;;-2.20;55.21;92609.31;2051404;70;20051;-76
2023/01/27 07:58:40;;;;;;;;;;;;;;;-2.11;55.32;92611.63;2047889;70;20097;-76
2023/01/27 08:01:06;;;;;;;;;;;;;;;-2.09;55.50;92615.38;2053182;70;20042;-76
2023/01/27 08:03:32;;;;;;;;;;;;;;;-2.17;54.88;92614.50;2053896;70;20197;-75
2023/01/27 08:05:57;;;;;;;;;;;;;;;-2.03;54.46;92620.03;2050746;70;20141;-77
2023/01/27 08:08:22;;;;;;;;;;;;;;;-1.91;55.09;92626.81;2051615;70;20161;-76
2023/01/27 08:10:50;;;;;;;;;;;;;;;-1.95;54.99;92610.59;2051588;70;20046;-77
2023/01/27 08:13:15;;;;;;;;;;;;;;;-2.12;55.10;92624.69;2050474;70;20506;-76
2023/01/27 08:15:41;;;;;;;;;;;;;;;-2.00;54.69;92613.47;2052679;70;20049;-76
2023/01/27 08:18:07;;;;;;;;;;;;;;;-2.11;54.64;92617.94;2053421;70;20121;-77
2023/01/27 08:20:33;;;;;;;;;;;;;;;-1.95;55.05;92618.84;2048365;70;20494;-77
2023/01/27 08:22:58;;;;;;;;;;;;;;;-2.15;55.07;92620.25;2051612;70;20047;-77
2023/01/27 08:25:24;;;;;;;;;;;;;;;-1.78;54.70;92617.78;2053343;70;20098;-76
2023/01/27 08:27:50;;;;;;;;;;;;;;;-2.03;54.42;92622.78;2050728;70;20043;-77
2023/01/27 08:30:16;;;;;;;;;;;;;;;-1.85;54.87;92617.16;2051261;70;20577;-77
2023/01/27 08:32:41;;;;;;;;;;;;;;;-1.94;54.36;92617.59;2051412;70;20055;-76
2023/01/27 08:35:08;;;;;;;;;;;;;;;-1.92;54.34;92619.81;2050928;70;20122;-77
2023/01/27 08:37:33;;;;;;;;;;;;;;;-2.13;55.22;92620.44;2051507;70;20051;-77
2023/01/27 08:39:58;;;;;;;;;;;;;;;-2.35;56.11;92627.13;2051180;70;20514;-77
2023/01/27 08:42:24;;;;;;;;;;;;;;;-2.19;55.50;92622.59;2051438;70;20157;-76
2023/01/27 08:44:49;;;;;;;;;;;;;;;-2.35;54.93;92629.16;2051558;70;20043;-77
2023/01/27 08:47:15;;;;;;;;;;;;;;;-2.32;55.12;92625.34;2051537;70;20061;-77
2023/01/27 08:49:40;;;;;;;;;;;;;;;-1.89;54.68;92632.53;2051539;70;20050;-76
2023/01/27 08:52:07;;;;;;;;;;;;;;;-2.25;54.69;92623.94;2051562;70;20083;-75
2023/01/27 08:54:32;;;;;;;;;;;;;;;-2.15;54.47;92634.03;2050902;70;20105;-77
2023/01/27 08:56:58;;;;;;;;;;;;;;;-1.98;55.10;92630.94;2051293;70;20093;-74
2023/01/27 08:59:23;;;;;;;;;;;;;;;-1.69;54.49;92628.41;2051429;70;20046;-74
2023/01/27 09:01:48;;;;;;;;;;;;;;;-2.09;54.97;92628.41;2051008;70;20146;-77
2023/01/27 09:04:14;;;;;;;;;;;;;;;-1.96;54.64;92633.94;2051043;70;20491;-75
2023/01/27 09:06:39;;;;;;;;;;;;;;;-1.82;54.69;92629.88;2052611;70;20039;-75
2023/01/27 09:09:08;;;;;;;;;;;;;;;-1.77;53.75;92631.06;2047993;70;20143;-75
2023/01/27 09:11:34;;;;;;;;;;;;;;;-1.67;54.48;92634.09;2051607;70;20081;-77
2023/01/27 09:13:59;;;;;;;;;;;;;;;-2.18;55.08;92634.34;2051197;70;20086;-78
2023/01/27 09:16:25;;;;;;;;;;;;;;;-2.06;54.63;92632.88;2051033;70;20205;-75
2023/01/27 09:18:51;;;;;;;;;;;;;;;-1.74;54.45;92629.22;2051437;70;20498;-77
2023/01/27 09:21:16;;;;;;;;;;;;;;;-1.74;54.85;92635.50;2051348;70;20047;-76
2023/01/27 09:23:41;;;;;;;;;;;;;;;-1.60;54.92;92630.72;2051500;70;20115;-76
2023/01/27 09:26:07;;;;;;;;;;;;;;;-1.46;54.54;92629.41;2053435;70;20050;-76
2023/01/27 09:28:32;;;;;;;;;;;;;;;-1.45;54.28;92633.66;2053915;70;20046;-76
2023/01/27 09:30:58;;;;;;;;;;;;;;;-1.47;54.07;92638.94;2051732;70;20050;-75
2023/01/27 09:33:24;;;;;;;;;;;;;;;-1.47;53.69;92640.97;2051372;70;20541;-76
2023/01/27 09:35:54;;;;;;;;;;;;;;;-1.25;54.44;92636.97;2053147;70;20046;-75
2023/01/27 09:38:21;;;;;;;;;;;;;;;-1.20;54.91;92642.38;2051330;70;20043;-75
2023/01/27 09:40:59;;;;;;;;;;;;;;;-1.50;53.53;92637.28;2047027;70;20478;-76
2023/01/27 09:43:24;;;;;;;;;;;;;;;-0.79;53.22;92644.44;2053323;70;20114;-76
2023/01/27 09:46:03;;;;;;;;;;;;;;;-0.41;52.52;92644.06;2051467;70;20082;-77
2023/01/27 09:48:28;;;;;;;;;;;;;;;-0.17;53.31;92650.50;2055181;70;20450;-77
2023/01/27 09:51:02;;;;;;;;;;;;;;;0.28;52.27;92647.28;2053532;70;20106;-77
2023/01/27 09:53:40;;;;;;;;;;;;;;;0.18;53.12;92655.34;2051253;70;20062;-76
2023/01/27 09:56:14;;;;;;;;;;;;;;;0.05;53.18;92647.16;2052075;70;20478;-77
2023/01/27 09:58:43;;;;;;;;;;;;;;;0.22;51.08;92647.41;2053405;70;20050;-78
2023/01/27 10:01:24;;;;;;;;;;;;;;;0.40;53.28;92650.47;2051802;70;20114;-77
2023/01/27 10:04:05;;;;;;;;;;;;;;;0.64;52.49;92647.28;2051793;70;20047;-77
2023/01/27 10:06:38;;;;;;;;;;;;;;;1.14;51.63;92653.31;2049743;70;20470;-76
2023/01/27 10:09:33;;;;;;;;;;;;;;;1.01;50.65;92642.41;2050134;70;20479;-76
2023/01/27 10:12:04;;;;;;;;;;;;;;;1.11;49.93;92637.81;2050887;70;20042;-76
2023/01/27 10:14:51;;;;;;;;;;;;;;;0.83;50.61;92637.94;2051696;70;20148;-77
2023/01/27 10:17:24;;;;;;;;;;;;;;;0.64;50.89;92652.06;2050640;70;20046;-77
2023/01/27 10:20:13;;;;;;;;;;;;;;;1.01;49.66;92650.72;2048893;70;20055;-77
2023/01/27 10:22:57;;;;;;;;;;;;;;;1.20;49.71;92642.09;2051669;70;20499;-76
2023/01/27 10:25:32;;;;;;;;;;;;;;;0.43;50.68;92641.81;2051327;70;20121;-79
2023/01/27 10:28:01;;;;;;;;;;;;;;;0.06;51.85;92632.03;2051052;70;20502;-77
2023/01/27 10:30:34;;;;;;;;;;;;;;;0.50;51.17;92637.59;2052804;70;20054;-77
2023/01/27 10:33:08;;;;;;;;;;;;;;;-0.22;51.42;92632.75;2052595;70;20100;-76
2023/01/27 10:35:40;;;;;;;;;;;;;;;-0.03;51.92;92624.94;2051034;70;20193;-76
2023/01/27 10:38:09;;;;;;;;;;;;;;;0.00;51.68;92625.91;2048345;70;20069;-76
2023/01/27 10:40:37;;;;;;;;;;;;;;;0.17;52.01;92628.19;2051656;70;20166;-75
2023/01/27 10:43:09;;;;;;;;;;;;;;;0.52;51.22;92618.41;2051424;70;20418;-76
2023/01/27 10:45:36;;;;;;;;;;;;;;;0.49;50.70;92614.69;2051427;70;20105;-76
2023/01/27 10:48:04;;;;;;;;;;;;;;;0.67;50.43;92621.22;2052256;70;20117;-76
2023/01/27 10:50:34;;;;;;;;;;;;;;;0.27;51.40;92626.41;2052916;70;20054;-76
2023/01/27 10:53:19;;;;;;;;;;;;;;;0.46;51.39;92620.59;2051817;70;20116;-77
2023/01/27 10:55:56;;;;;;;;;;;;;;;0.54;50.81;92621.34;2048836;70;20074;-76
2023/01/27 10:58:54;;;;;;;;;;;;;;;0.46;51.09;92617.84;2050533;70;20059;-76
2023/01/27 11:01:24;;;;;;;;;;;;;;;0.38;51.32;92626.09;2045094;70;20054;-76
2023/01/27 11:03:52;;;;;;;;;;;;;;;0.49;51.99;92625.78;2051736;70;20050;-76
2023/01/27 11:06:21;;;;;;;;;;;;;;;0.68;51.26;92622.69;2051457;70;20049;-78
2023/01/27 11:08:49;;;;;;;;;;;;;;;0.70;50.85;92627.72;2051876;70;20113;-77
2023/01/27 11:14:24;;;;;;;;;;;;;;;0.40;51.86;92628.31;2049254;70;20046;-75
2023/01/27 11:16:51;;;;;;;;;;;;;;;0.19;51.83;92620.84;2049991;70;21171;-76
2023/01/27 11:19:43;;;;;;;;;;;;;;;0.54;52.15;92617.84;2051680;70;20131;-74
2023/01/27 11:22:16;;;;;;;;;;;;;;;0.90;51.74;92618.53;2046243;70;20086;-74
2023/01/27 11:24:44;;;;;;;;;;;;;;;0.42;52.25;92620.94;2051485;70;20105;-77
2023/01/27 11:27:33;;;;;;;;;;;;;;;0.20;53.59;92618.81;2050998;70;20038;-78
2023/01/27 11:30:08;;;;;;;;;;;;;;;0.11;53.50;92619.31;2049177;70;20141;-79
2023/01/27 11:32:57;;;;;;;;;;;;;;;0.03;54.60;92622.03;2051481;70;20051;-78
2023/01/27 11:35:22;;;;;;;;;;;;;;;0.20;54.58;92614.00;2050759;70;20283;-81
2023/01/27 11:37:50;;;;;;;;;;;;;;;-0.32;55.21;92615.91;2050733;70;20142;-77
2023/01/27 11:40:33;;;;;;;;;;;;;;;0.03;54.44;92605.41;2051305;70;20248;-78
2023/01/27 11:42:59;;;;;;;;;;;;;;;0.30;54.17;92605.94;2051363;70;20524;-79
2023/01/27 11:45:25;;;;;;;;;;;;;;;0.15;53.77;92600.34;2051077;70;20548;-78
2023/01/27 11:47:56;;;;;;;;;;;;;;;0.14;54.07;92596.09;2049841;70;20050;-77
2023/01/27 11:50:26;;;;;;;;;;;;;;;0.59;53.87;92598.28;2049550;70;20078;-77
2023/01/27 11:52:57;;;;;;;;;;;;;;;0.63;53.33;92590.38;2051451;70;20049;-79
2023/01/27 11:55:25;;;;;;;;;;;;;;;0.15;53.95;92584.47;2051656;70;20047;-80
2023/01/27 11:57:55;;;;;;;;;;;;;;;0.87;52.90;92582.84;2050428;70;20165;-77
2023/01/27 12:00:20;;;;;;;;;;;;;;;1.03;52.35;92584.38;2054879;70;20046;-75
2023/01/27 12:03:09;;;;;;;;;;;;;;;1.02;52.75;92585.66;2054085;70;20108;-76
2023/01/27 12:05:36;;;;;;;;;;;;;;;0.98;51.58;92577.72;2053752;70;20160;-77
2023/01/27 12:08:04;;;;;;;;;;;;;;;0.57;52.74;92578.72;2053686;70;20058;-78
2023/01/27 12:10:37;;;;;;;;;;;;;;;0.85;52.39;92582.69;2048096;70;20415;-76
2023/01/27 12:13:08;;;;;;;;;;;;;;;0.89;52.25;92572.72;2050853;70;20058;-76
2023/01/27 12:15:33;;;;;;;;;;;;;;;0.88;52.31;92568.47;2050414;70;20055;-79
2023/01/27 12:18:02;;;;;;;;;;;;;;;0.50;52.14;92565.56;2050999;70;20062;-77
2023/01/27 12:20:33;;;;;;;;;;;;;;;0.91;52.25;92553.47;2051563;70;20483;-77
2023/01/27 12:23:04;;;;;;;;;;;;;;;0.43;51.64;92555.22;2051318;70;20085;-78
2023/01/27 12:25:40;;;;;;;;;;;;;;;0.74;52.15;92550.50;2051438;70;20134;-76
2023/01/27 12:28:14;;;;;;;;;;;;;;;0.99;52.11;92551.47;2051083;70;20053;-77
2023/01/27 12:30:39;;;;;;;;;;;;;;;1.31;51.46;92543.91;2051679;70;20049;-78
2023/01/27 12:33:12;;;;;;;;;;;;;;;1.56;50.67;92550.38;2051392;70;20082;-77
2023/01/27 12:35:38;;;;;;;;;;;;;;;1.71;50.58;92542.03;2051552;70;20050;-78
2023/01/27 12:38:04;;;;;;;;;;;;;;;0.73;51.13;92535.91;2048379;70;20083;-78
2023/01/27 12:40:31;;;;;;;;;;;;;;;1.07;50.56;92537.63;2054911;70;20579;-77
2023/01/27 12:43:13;;;;;;;;;;;;;;;1.32;50.56;92543.34;2054711;70;20475;-79
2023/01/27 12:45:39;;;;;;;;;;;;;;;1.40;50.45;92535.03;2054750;70;20042;-78
2023/01/27 12:48:08;;;;;;;;;;;;;;;0.75;50.71;92532.59;2054035;70;20069;-76
2023/01/27 12:51:00;;;;;;;;;;;;;;;0.38;51.47;92537.47;2054684;69;20042;-78
2023/01/27 12:53:28;;;;;;;;;;;;;;;0.90;50.97;92537.41;2051397;70;20189;-79
2023/01/27 12:56:06;;;;;;;;;;;;;;;0.21;52.27;92540.00;2054741;70;20056;-79
2023/01/27 12:58:31;;;;;;;;;;;;;;;0.75;51.72;92540.91;2054680;70;20451;-78
2023/01/27 13:00:58;;;;;;;;;;;;;;;0.65;52.00;92545.50;2054825;70;20057;-76
2023/01/27 13:03:24;;;;;;;;;;;;;;;0.30;52.29;92538.75;2054996;70;20058;-76
2023/01/27 13:05:52;;;;;;;;;;;;;;;0.98;51.11;92538.91;2057159;70;20113;-77
2023/01/27 13:08:18;;;;;;;;;;;;;;;0.20;51.82;92544.78;2050680;70;20512;-77
2023/01/27 13:10:52;;;;;;;;;;;;;;;0.66;51.83;92538.66;2054614;70;20116;-77
2023/01/27 13:13:19;;;;;;;;;;;;;;;0.61;50.27;92550.66;2054533;70;20053;-79
2023/01/27 13:16:03;;;;;;;;;;;;;;;0.57;50.31;92545.47;2054738;70;20502;-77
2023/01/27 13:18:32;;;;;;;;;;;;;;;1.41;49.87;92547.59;2054106;70;20053;-77
2023/01/27 13:21:02;;;;;;;;;;;;;;;0.93;50.15;92542.59;2054152;70;20066;-79
2023/01/27 13:23:33;;;;;;;;;;;;;;;1.01;49.31;92542.63;2054565;70;20046;-79
2023/01/27 13:26:08;;;;;;;;;;;;;;;0.62;50.78;92541.06;2054665;70;20179;-78